Time;durP1;ratioP1;P1;durP2;ratioP2;P2;SDS_P1;SDS_P2;PMS_P1;PMS_P2;Temp;Humidity;BMP_temperature;BMP_pressure;BME280_temperature;BME280_humidity;BME280_pressure;Samples;Min_cycle;Max_cycle;Signal;HPM_P1;HPM_P2
2023/07/01 00:01:55;;;;;;;6.22;2.80;;;;;;;;;;5022241;28;20126;-69
2023/07/01 00:04:43;;;;;;;6.75;2.85;;;;;;;;;;5033082;28;20025;-68
2023/07/01 00:07:28;;;;;;;3.58;2.50;;;;;;;;;;5027784;28;20036;-69
2023/07/01 00:10:13;;;;;;;6.63;2.65;;;;;;;;;;5027678;28;20506;-69
2023/07/01 00:12:59;;;;;;;3.00;2.20;;;;;;;;;;5028130;28;20037;-70
2023/07/01 00:15:45;;;;;;;6.38;2.60;;;;;;;;;;5014122;28;20053;-71
2023/07/01 00:18:30;;;;;;;6.88;2.70;;;;;;;;;;5003277;28;20034;-70
2023/07/01 00:21:15;;;;;;;5.88;2.53;;;;;;;;;;5019343;28;20041;-71
2023/07/01 00:24:00;;;;;;;4.50;2.33;;;;;;;;;;5027559;28;20223;-71
2023/07/01 00:26:46;;;;;;;4.65;2.72;;;;;;;;;;5027393;28;20029;-70
2023/07/01 00:29:31;;;;;;;5.22;2.22;;;;;;;;;;5027754;28;20435;-63
2023/07/01 00:32:16;;;;;;;3.60;2.25;;;;;;;;;;5027950;28;20033;-67
2023/07/01 00:35:01;;;;;;;3.55;2.45;;;;;;;;;;5039481;28;20037;-67
2023/07/01 00:37:47;;;;;;;5.20;2.00;;;;;;;;;;5006991;28;20392;-69
2023/07/01 00:40:32;;;;;;;3.67;2.30;;;;;;;;;;5024992;28;20131;-69
2023/07/01 00:43:17;;;;;;;3.05;2.35;;;;;;;;;;5028072;28;20037;-69
2023/07/01 00:46:02;;;;;;;5.20;2.50;;;;;;;;;;5031511;28;20037;-73
2023/07/01 00:48:48;;;;;;;3.88;2.65;;;;;;;;;;5031091;28;20088;-80
2023/07/01 00:51:33;;;;;;;3.92;2.20;;;;;;;;;;5026597;28;20066;-72
2023/07/01 00:54:24;;;;;;;4.65;2.45;;;;;;;;;;5029388;28;20033;-72
2023/07/01 00:57:09;;;;;;;2.90;1.88;;;;;;;;;;5030799;28;20021;-71
2023/07/01 00:59:54;;;;;;;4.10;2.05;;;;;;;;;;5042556;28;20045;-71
2023/07/01 01:02:54;;;;;;;4.10;2.47;;;;;;;;;;5030482;28;20404;-71
2023/07/01 01:05:41;;;;;;;3.25;2.05;;;;;;;;;;5044451;28;20032;-62
2023/07/01 01:08:41;;;;;;;4.85;2.40;;;;;;;;;;5030611;28;20032;-68
2023/07/01 01:11:28;;;;;;;6.38;2.28;;;;;;;;;;5038759;28;20041;-68
2023/07/01 01:14:14;;;;;;;2.58;1.98;;;;;;;;;;5024163;28;20502;-68
2023/07/01 01:17:04;;;;;;;3.55;2.10;;;;;;;;;;5024408;28;20457;-68
2023/07/01 01:19:52;;;;;;;3.28;1.98;;;;;;;;;;5022734;28;20443;-69
2023/07/01 01:22:44;;;;;;;5.20;2.33;;;;;;;;;;5030425;28;20064;-77
2023/07/01 01:25:42;;;;;;;3.05;1.88;;;;;;;;;;5030107;28;20064;-69
2023/07/01 01:28:28;;;;;;;4.22;2.08;;;;;;;;;;5042230;28;20021;-70
2023/07/01 01:31:13;;;;;;;5.50;2.10;;;;;;;;;;5037745;28;20550;-71
2023/07/01 01:33:59;;;;;;;6.40;2.00;;;;;;;;;;5014691;28;20029;-71
2023/07/01 01:36:55;;;;;;;3.35;2.13;;;;;;;;;;5030647;28;20037;-71
2023/07/01 01:39:48;;;;;;;4.03;2.05;;;;;;;;;;5043475;28;20072;-71
2023/07/01 01:42:34;;;;;;;2.13;1.60;;;;;;;;;;5018115;28;20025;-67
2023/07/01 01:45:20;;;;;;;3.28;2.17;;;;;;;;;;5043780;28;20037;-68
2023/07/01 01:48:05;;;;;;;5.93;2.10;;;;;;;;;;5030562;28;20040;-68
2023/07/01 01:50:52;;;;;;;3.03;1.80;;;;;;;;;;5029721;28;20040;-67
2023/07/01 01:53:39;;;;;;;4.15;2.15;;;;;;;;;;5016478;28;20069;-67
2023/07/01 01:56:25;;;;;;;3.25;1.98;;;;;;;;;;5042864;28;20497;-69
2023/07/01 01:59:11;;;;;;;3.17;2.10;;;;;;;;;;5043498;28;20468;-68
2023/07/01 02:01:56;;;;;;;3.88;2.15;;;;;;;;;;5030326;28;20037;-71
2023/07/01 02:04:42;;;;;;;5.95;2.30;;;;;;;;;;5028230;28;20025;-67
2023/07/01 02:07:27;;;;;;;4.97;2.45;;;;;;;;;;5023902;28;20481;-67
2023/07/01 02:10:13;;;;;;;7.78;2.13;;;;;;;;;;5043406;28;20550;-68
2023/07/01 02:12:58;;;;;;;2.10;1.90;;;;;;;;;;5029682;28;20036;-67
2023/07/01 02:15:44;;;;;;;5.03;2.20;;;;;;;;;;5043540;28;20049;-66
2023/07/01 02:18:29;;;;;;;4.00;2.00;;;;;;;;;;5030437;28;20292;-74
2023/07/01 02:21:14;;;;;;;4.20;2.22;;;;;;;;;;5005894;28;20077;-74
2023/07/01 02:23:59;;;;;;;4.43;2.50;;;;;;;;;;5043176;28;20068;-73
2023/07/01 02:26:45;;;;;;;4.25;2.33;;;;;;;;;;5029677;28;20805;-74
2023/07/01 02:29:30;;;;;;;3.92;2.47;;;;;;;;;;5028952;28;20029;-74
2023/07/01 02:32:15;;;;;;;5.45;1.80;;;;;;;;;;5029882;28;20095;-74
2023/07/01 02:35:01;;;;;;;5.88;2.40;;;;;;;;;;5028995;28;20411;-73
2023/07/01 02:37:46;;;;;;;6.60;2.30;;;;;;;;;;5007796;28;20036;-73
2023/07/01 02:40:31;;;;;;;4.57;2.45;;;;;;;;;;5042974;28;20220;-73
2023/07/01 02:43:16;;;;;;;4.43;2.20;;;;;;;;;;5029106;28;20032;-73
2023/07/01 02:46:01;;;;;;;3.70;2.33;;;;;;;;;;5043105;28;20060;-74
2023/07/01 02:48:47;;;;;;;3.75;2.33;;;;;;;;;;5015497;28;20032;-73
2023/07/01 02:51:32;;;;;;;3.55;2.40;;;;;;;;;;5020086;28;20037;-73
2023/07/01 02:54:17;;;;;;;3.97;2.25;;;;;;;;;;5030391;28;20073;-72
2023/07/01 02:57:02;;;;;;;4.57;2.40;;;;;;;;;;5039121;28;20069;-69
2023/07/01 02:59:48;;;;;;;3.78;2.42;;;;;;;;;;5028696;28;20041;-63
2023/07/01 03:02:34;;;;;;;5.20;2.53;;;;;;;;;;5028936;28;20022;-64
2023/07/01 03:05:21;;;;;;;4.20;2.40;;;;;;;;;;5028795;28;20032;-63
2023/07/01 03:08:06;;;;;;;5.18;2.30;;;;;;;;;;5026769;28;20124;-64
2023/07/01 03:10:51;;;;;;;6.22;2.63;;;;;;;;;;5028204;28;20037;-63
2023/07/01 03:13:37;;;;;;;5.68;2.47;;;;;;;;;;5042355;28;20029;-72
2023/07/01 03:16:23;;;;;;;4.47;2.28;;;;;;;;;;5037188;28;20056;-67
2023/07/01 03:19:08;;;;;;;4.78;2.60;;;;;;;;;;5027570;28;20079;-67
2023/07/01 03:21:53;;;;;;;3.15;2.38;;;;;;;;;;5015053;28;20041;-66
2023/07/01 03:24:38;;;;;;;4.78;2.58;;;;;;;;;;5023756;28;20029;-68
2023/07/01 03:27:23;;;;;;;4.93;2.33;;;;;;;;;;5018969;28;20032;-66
2023/07/01 03:30:15;;;;;;;4.70;2.63;;;;;;;;;;5028796;28;20037;-68
2023/07/01 03:33:00;;;;;;;6.68;2.63;;;;;;;;;;5028004;28;20033;-73
2023/07/01 03:35:46;;;;;;;4.10;2.20;;;;;;;;;;5028386;28;20024;-79
2023/07/01 03:38:31;;;;;;;5.80;2.35;;;;;;;;;;5027820;28;20029;-81
2023/07/01 03:41:16;;;;;;;3.83;2.35;;;;;;;;;;5025387;28;20468;-81
2023/07/01 03:44:03;;;;;;;4.32;2.35;;;;;;;;;;5028127;28;20059;-80
2023/07/01 03:46:49;;;;;;;4.30;2.60;;;;;;;;;;5028240;28;20073;-79
2023/07/01 03:49:34;;;;;;;4.07;2.63;;;;;;;;;;5028928;28;20029;-79
2023/07/01 03:52:19;;;;;;;5.97;2.70;;;;;;;;;;5017410;28;20435;-75
2023/07/01 03:55:06;;;;;;;3.20;1.98;;;;;;;;;;5034972;28;20025;-74
2023/07/01 03:57:51;;;;;;;3.67;2.47;;;;;;;;;;5027409;28;20029;-72
2023/07/01 04:00:36;;;;;;;3.15;2.03;;;;;;;;;;5027460;28;20035;-73
2023/07/01 04:03:23;;;;;;;4.15;2.45;;;;;;;;;;5016596;28;20476;-72
2023/07/01 04:06:08;;;;;;;4.32;2.67;;;;;;;;;;5041431;28;20037;-72
2023/07/01 04:08:54;;;;;;;5.97;2.40;;;;;;;;;;5027962;28;20025;-72
2023/07/01 04:11:40;;;;;;;4.70;2.22;;;;;;;;;;5028029;28;20044;-71
2023/07/01 04:14:25;;;;;;;4.40;2.50;;;;;;;;;;5037033;28;20050;-71
2023/07/01 04:17:10;;;;;;;5.93;2.60;;;;;;;;;;5042170;28;20591;-71
2023/07/01 04:19:56;;;;;;;4.38;2.25;;;;;;;;;;5043232;28;20045;-71
2023/07/01 04:22:41;;;;;;;4.57;2.33;;;;;;;;;;5031747;28;20021;-71
2023/07/01 04:25:27;;;;;;;5.68;2.70;;;;;;;;;;5031923;28;20045;-73
2023/07/01 04:28:12;;;;;;;8.82;2.53;;;;;;;;;;5031326;28;20032;-71
2023/07/01 04:30:57;;;;;;;3.78;2.40;;;;;;;;;;5031326;28;20112;-82
2023/07/01 04:33:42;;;;;;;5.93;2.33;;;;;;;;;;5025915;28;20036;-79
2023/07/01 04:36:28;;;;;;;5.05;2.38;;;;;;;;;;5030907;28;20057;-78
2023/07/01 04:39:14;;;;;;;3.63;2.50;;;;;;;;;;5044498;28;20037;-81
2023/07/01 04:41:59;;;;;;;5.35;2.83;;;;;;;;;;5044086;28;20542;-80
2023/07/01 04:44:44;;;;;;;4.70;2.90;;;;;;;;;;5031721;28;20021;-77
2023/07/01 04:47:29;;;;;;;4.25;2.67;;;;;;;;;;5031283;28;20150;-62
2023/07/01 04:50:15;;;;;;;3.88;2.30;;;;;;;;;;5031250;28;20025;-71
2023/07/01 04:53:00;;;;;;;7.18;3.08;;;;;;;;;;5017341;28;20036;-71
2023/07/01 04:55:45;;;;;;;4.07;2.30;;;;;;;;;;5053701;28;20105;-70
2023/07/01 04:58:31;;;;;;;5.13;3.00;;;;;;;;;;5031010;28;20040;-71
2023/07/01 05:01:16;;;;;;;3.72;2.40;;;;;;;;;;5044661;28;20041;-70
2023/07/01 05:04:01;;;;;;;3.63;2.40;;;;;;;;;;5031466;28;20440;-69
2023/07/01 05:06:47;;;;;;;5.18;2.65;;;;;;;;;;5023149;28;20025;-75
2023/07/01 05:09:32;;;;;;;5.68;2.47;;;;;;;;;;5039309;28;20033;-66
2023/07/01 05:12:17;;;;;;;3.88;2.80;;;;;;;;;;5030474;28;20026;-67
2023/07/01 05:15:03;;;;;;;4.25;2.47;;;;;;;;;;5003873;28;20525;-67
2023/07/01 05:17:48;;;;;;;4.22;2.85;;;;;;;;;;5045394;28;20500;-67
2023/07/01 05:20:33;;;;;;;6.70;2.85;;;;;;;;;;5039815;28;20386;-66
2023/07/01 05:23:18;;;;;;;3.72;2.30;;;;;;;;;;5028921;28;20057;-70
2023/07/01 05:26:03;;;;;;;4.13;2.20;;;;;;;;;;5016493;28;20029;-71
2023/07/01 05:28:49;;;;;;;3.17;2.00;;;;;;;;;;5044504;28;20108;-72
2023/07/01 05:31:34;;;;;;;3.80;2.30;;;;;;;;;;5030509;28;20037;-71
2023/07/01 05:34:19;;;;;;;3.53;2.70;;;;;;;;;;5017007;28;20033;-70
2023/07/01 05:37:04;;;;;;;6.68;2.75;;;;;;;;;;5026722;28;20053;-71
2023/07/01 05:39:50;;;;;;;3.15;2.30;;;;;;;;;;5030515;28;20406;-70
2023/07/01 05:42:35;;;;;;;2.85;2.10;;;;;;;;;;5043843;28;20040;-65
2023/07/01 05:45:20;;;;;;;3.53;2.10;;;;;;;;;;5026120;28;20033;-71
2023/07/01 05:48:05;;;;;;;4.95;2.20;;;;;;;;;;5037363;28;20229;-70
2023/07/01 05:50:51;;;;;;;3.70;2.55;;;;;;;;;;5027266;28;20018;-69
2023/07/01 05:53:36;;;;;;;3.10;2.33;;;;;;;;;;5026036;28;20060;-69
2023/07/01 05:56:21;;;;;;;4.13;2.63;;;;;;;;;;5057281;28;20702;-69
2023/07/01 05:59:06;;;;;;;5.32;2.08;;;;;;;;;;5029770;28;20033;-71
2023/07/01 06:01:51;;;;;;;4.75;2.10;;;;;;;;;;5021412;28;20128;-71
2023/07/01 06:04:37;;;;;;;5.70;2.40;;;;;;;;;;5042303;28;20170;-68
2023/07/01 06:07:23;;;;;;;5.38;2.30;;;;;;;;;;5043494;28;20034;-67
2023/07/01 06:10:08;;;;;;;3.03;2.10;;;;;;;;;;5018446;28;20515;-67
2023/07/01 06:12:53;;;;;;;7.43;2.85;;;;;;;;;;5040480;28;20041;-66
2023/07/01 06:15:38;;;;;;;3.75;2.03;;;;;;;;;;5043674;28;20053;-65
2023/07/01 06:18:24;;;;;;;4.32;2.40;;;;;;;;;;5030388;28;20025;-70
2023/07/01 06:21:09;;;;;;;2.80;1.85;;;;;;;;;;5028462;28;20486;-82
2023/07/01 06:23:55;;;;;;;4.68;2.13;;;;;;;;;;5029485;28;20040;-82
2023/07/01 06:26:40;;;;;;;4.40;2.33;;;;;;;;;;5029730;28;20055;-82
2023/07/01 06:29:26;;;;;;;5.25;2.15;;;;;;;;;;5030478;28;20027;-84
2023/07/01 06:32:12;;;;;;;8.15;2.35;;;;;;;;;;5033947;28;20037;-82
2023/07/01 06:34:57;;;;;;;3.08;2.03;;;;;;;;;;5044324;28;20036;-81
2023/07/01 06:37:42;;;;;;;4.25;2.33;;;;;;;;;;5009625;28;20017;-63
2023/07/01 06:40:27;;;;;;;6.20;2.20;;;;;;;;;;5028413;28;20033;-81
2023/07/01 06:43:12;;;;;;;5.07;1.60;;;;;;;;;;5027691;28;20064;-82
2023/07/01 06:45:59;;;;;;;3.33;1.60;;;;;;;;;;5032123;28;20025;-82
2023/07/01 06:48:44;;;;;;;4.43;1.90;;;;;;;;;;5025688;28;20021;-84
2023/07/01 06:51:29;;;;;;;4.28;1.80;;;;;;;;;;5021832;28;20067;-83
2023/07/01 06:54:15;;;;;;;9.43;2.05;;;;;;;;;;5031395;28;20022;-84
2023/07/01 06:57:00;;;;;;;5.78;2.20;;;;;;;;;;5028059;28;20041;-70
2023/07/01 06:59:45;;;;;;;4.25;1.80;;;;;;;;;;5042638;28;20069;-66
2023/07/01 07:02:30;;;;;;;5.55;2.15;;;;;;;;;;5042759;28;20029;-66
2023/07/01 07:05:15;;;;;;;3.40;1.88;;;;;;;;;;5030244;28;20029;-66
2023/07/01 07:08:01;;;;;;;4.30;1.90;;;;;;;;;;5026451;28;20134;-66
2023/07/01 07:10:46;;;;;;;5.00;2.13;;;;;;;;;;5025763;28;20060;-67
2023/07/01 07:13:32;;;;;;;4.18;1.88;;;;;;;;;;5040523;28;20033;-70
2023/07/01 07:16:17;;;;;;;4.13;1.80;;;;;;;;;;5043173;28;20166;-74
2023/07/01 07:19:02;;;;;;;4.47;1.85;;;;;;;;;;5028201;28;20037;-74
2023/07/01 07:21:47;;;;;;;5.65;1.80;;;;;;;;;;5032253;28;20063;-73
2023/07/01 07:24:32;;;;;;;5.05;2.08;;;;;;;;;;5025870;28;20029;-74
2023/07/01 07:27:18;;;;;;;4.28;1.67;;;;;;;;;;5028059;28;20041;-73
2023/07/01 07:30:04;;;;;;;4.90;1.77;;;;;;;;;;5028461;28;20029;-73
2023/07/01 07:32:49;;;;;;;4.75;2.65;;;;;;;;;;5042329;28;20041;-75
2023/07/01 07:35:34;;;;;;;5.30;2.15;;;;;;;;;;5012509;28;20030;-66
2023/07/01 07:38:19;;;;;;;6.45;2.65;;;;;;;;;;5034422;28;20036;-65
2023/07/01 07:41:05;;;;;;;5.32;1.90;;;;;;;;;;5041412;28;20041;-63
2023/07/01 07:43:50;;;;;;;5.05;1.80;;;;;;;;;;5041435;28;20083;-64
2023/07/01 07:46:35;;;;;;;4.68;1.77;;;;;;;;;;5041073;28;20058;-64
2023/07/01 07:49:21;;;;;;;5.38;1.55;;;;;;;;;;5028448;28;20037;-73
2023/07/01 07:52:06;;;;;;;4.90;1.70;;;;;;;;;;5036989;28;20040;-71
2023/07/01 07:54:51;;;;;;;4.22;1.77;;;;;;;;;;5027532;28;20496;-70
2023/07/01 07:57:36;;;;;;;2.55;1.80;;;;;;;;;;5027465;28;20033;-70
2023/07/01 08:00:22;;;;;;;2.78;1.77;;;;;;;;;;5027764;28;20033;-68
2023/07/01 08:03:07;;;;;;;3.80;1.30;;;;;;;;;;5034509;28;20033;-70
2023/07/01 08:05:52;;;;;;;6.35;1.98;;;;;;;;;;5027851;28;20391;-70
2023/07/01 08:08:37;;;;;;;4.38;1.83;;;;;;;;;;5027917;28;20275;-72
2023/07/01 08:11:22;;;;;;;6.22;2.42;;;;;;;;;;5027782;28;20028;-70
2023/07/01 08:14:08;;;;;;;5.05;2.15;;;;;;;;;;5041767;28;20045;-69
2023/07/01 08:16:53;;;;;;;7.25;2.05;;;;;;;;;;5042155;28;20587;-70
2023/07/01 08:19:38;;;;;;;2.72;1.70;;;;;;;;;;5027644;28;20037;-69
2023/07/01 08:22:24;;;;;;;2.92;1.77;;;;;;;;;;5018679;28;20037;-70
2023/07/01 08:25:09;;;;;;;6.00;1.80;;;;;;;;;;5027442;28;20739;-70
2023/07/01 08:27:54;;;;;;;3.58;2.08;;;;;;;;;;5027438;28;20319;-63
2023/07/01 08:30:39;;;;;;;6.63;2.15;;;;;;;;;;5041363;28;20017;-64
2023/07/01 08:33:28;;;;;;;3.90;1.88;;;;;;;;;;5027330;28;20017;-66
2023/07/01 08:36:13;;;;;;;3.03;2.13;;;;;;;;;;5018537;28;20469;-63
2023/07/01 08:38:58;;;;;;;2.65;2.00;;;;;;;;;;5033021;28;20042;-63
2023/07/01 08:42:02;;;;;;;3.95;1.77;;;;;;;;;;5024084;28;20171;-64
2023/07/01 08:44:48;;;;;;;6.97;2.15;;;;;;;;;;5021182;28;20021;-72
2023/07/01 08:47:34;;;;;;;3.42;1.90;;;;;;;;;;5041387;28;20501;-69
2023/07/01 08:50:20;;;;;;;2.47;1.60;;;;;;;;;;5026721;28;20468;-64
2023/07/01 08:53:06;;;;;;;4.85;2.17;;;;;;;;;;5033320;28;20033;-67
2023/07/01 08:55:52;;;;;;;4.50;1.95;;;;;;;;;;5031945;28;20498;-69
2023/07/01 08:58:37;;;;;;;2.83;1.70;;;;;;;;;;5027406;28;20026;-68
2023/07/01 09:01:22;;;;;;;3.00;2.03;;;;;;;;;;5027595;28;20365;-67
2023/07/01 09:04:07;;;;;;;3.75;2.30;;;;;;;;;;5041255;28;20031;-61
2023/07/01 09:06:53;;;;;;;3.90;1.83;;;;;;;;;;5030588;28;20120;-65
2023/07/01 09:09:38;;;;;;;3.97;1.70;;;;;;;;;;5031110;28;20037;-63
2023/07/01 09:12:27;;;;;;;2.78;1.83;;;;;;;;;;5031202;28;20029;-68
2023/07/01 09:15:12;;;;;;;3.50;1.55;;;;;;;;;;5016838;28;20045;-65
2023/07/01 09:17:57;;;;;;;3.05;1.83;;;;;;;;;;5045678;28;20416;-64
2023/07/01 09:20:43;;;;;;;4.03;1.52;;;;;;;;;;5037315;28;20116;-65
2023/07/01 09:23:28;;;;;;;2.55;1.60;;;;;;;;;;5044287;28;20022;-68
2023/07/01 09:26:19;;;;;;;2.38;1.70;;;;;;;;;;5044660;28;20029;-63
2023/07/01 09:29:08;;;;;;;3.13;1.67;;;;;;;;;;5030712;28;20037;-63
2023/07/01 09:31:53;;;;;;;8.98;1.50;;;;;;;;;;5030487;28;20503;-63
2023/07/01 09:34:57;;;;;;;3.60;1.60;;;;;;;;;;5044529;28;20044;-64
2023/07/01 09:37:43;;;;;;;2.65;1.58;;;;;;;;;;5021726;28;20086;-65
2023/07/01 09:40:28;;;;;;;5.15;1.63;;;;;;;;;;5030406;28;20112;-71
2023/07/01 09:43:13;;;;;;;3.97;1.50;;;;;;;;;;5043990;28;20468;-70
2023/07/01 09:45:58;;;;;;;3.63;1.55;;;;;;;;;;5019183;28;20365;-69
2023/07/01 09:48:54;;;;;;;2.35;1.45;;;;;;;;;;5029556;28;20033;-69
2023/07/01 09:51:47;;;;;;;3.13;1.70;;;;;;;;;;5020417;28;20049;-69
2023/07/01 09:54:32;;;;;;;3.72;1.70;;;;;;;;;;5019229;28;20120;-71
2023/07/01 09:57:17;;;;;;;4.55;2.17;;;;;;;;;;5045539;28;20116;-69
2023/07/01 10:00:03;;;;;;;11.20;2.70;;;;;;;;;;5030412;28;20056;-72
2023/07/01 10:02:49;;;;;;;5.32;2.15;;;;;;;;;;5041425;28;20496;-84
2023/07/01 10:05:34;;;;;;;2.65;1.80;;;;;;;;;;5030244;28;20490;-86
2023/07/01 10:08:20;;;;;;;3.65;2.20;;;;;;;;;;5016408;28;20029;-84
2023/07/01 10:11:15;;;;;;;8.38;2.20;;;;;;;;;;5030257;28;20036;-85
2023/07/01 10:14:03;;;;;;;2.75;1.77;;;;;;;;;;5029771;28;20048;-87
2023/07/01 10:16:49;;;;;;;3.78;2.38;;;;;;;;;;5026472;28;20025;-64
2023/07/01 10:19:34;;;;;;;5.90;1.83;;;;;;;;;;5043374;28;20033;-63
2023/07/01 10:22:23;;;;;;;4.97;2.17;;;;;;;;;;5006754;28;20120;-73
2023/07/01 10:25:08;;;;;;;9.97;2.17;;;;;;;;;;5029720;28;20030;-72
2023/07/01 10:27:59;;;;;;;5.57;1.90;;;;;;;;;;5043209;28;20441;-73
2023/07/01 10:30:45;;;;;;;4.60;1.67;;;;;;;;;;5043576;28;20031;-72
2023/07/01 10:33:30;;;;;;;5.45;1.90;;;;;;;;;;5043513;28;20029;-73
2023/07/01 10:36:19;;;;;;;3.85;1.95;;;;;;;;;;5034208;28;20388;-72
2023/07/01 10:39:23;;;;;;;3.65;1.92;;;;;;;;;;5028718;28;20120;-65
2023/07/01 10:42:31;;;;;;;6.47;1.95;;;;;;;;;;5028776;28;20045;-65
2023/07/01 10:45:16;;;;;;;3.97;2.10;;;;;;;;;;5043242;28;20457;-67
2023/07/01 10:48:01;;;;;;;1.85;1.63;;;;;;;;;;5043054;28;20106;-66
2023/07/01 10:51:16;;;;;;;4.20;2.08;;;;;;;;;;5026589;28;20021;-65
2023/07/01 10:54:02;;;;;;;4.45;2.13;;;;;;;;;;5022178;28;20044;-66
2023/07/01 10:57:06;;;;;;;5.65;2.55;;;;;;;;;;5048418;28;20063;-63
2023/07/01 11:00:12;;;;;;;4.88;2.25;;;;;;;;;;5028783;28;20128;-64
2023/07/01 11:02:57;;;;;;;4.13;2.45;;;;;;;;;;5014924;28;20105;-64
2023/07/01 11:06:02;;;;;;;5.95;2.20;;;;;;;;;;5015451;28;20026;-64
2023/07/01 11:08:52;;;;;;;4.32;2.45;;;;;;;;;;5028827;28;20029;-64
2023/07/01 11:11:37;;;;;;;4.78;2.97;;;;;;;;;;5015464;28;20045;-82
2023/07/01 11:14:30;;;;;;;5.47;2.60;;;;;;;;;;5028311;28;20068;-67
2023/07/01 11:17:16;;;;;;;5.32;2.20;;;;;;;;;;5043896;28;20095;-73
2023/07/01 11:20:02;;;;;;;6.97;2.72;;;;;;;;;;5026510;28;20036;-73
2023/07/01 11:22:47;;;;;;;5.35;1.83;;;;;;;;;;5036573;28;20104;-73
2023/07/01 11:25:39;;;;;;;5.60;2.20;;;;;;;;;;5042297;28;20099;-74
2023/07/01 11:28:32;;;;;;;4.13;2.78;;;;;;;;;;5028558;28;20172;-74
2023/07/01 11:31:18;;;;;;;3.85;2.58;;;;;;;;;;5028382;28;20458;-69
2023/07/01 11:34:03;;;;;;;3.97;2.50;;;;;;;;;;5014461;28;20598;-69
2023/07/01 11:36:48;;;;;;;4.43;2.40;;;;;;;;;;5021323;28;20392;-68
2023/07/01 11:39:41;;;;;;;3.92;2.03;;;;;;;;;;5026141;28;20029;-69
2023/07/01 11:42:27;;;;;;;5.63;3.03;;;;;;;;;;5015352;28;20510;-67
2023/07/01 11:45:12;;;;;;;5.10;2.70;;;;;;;;;;5027598;28;20083;-68
2023/07/01 11:47:57;;;;;;;4.28;1.95;;;;;;;;;;5028325;28;20069;-68
2023/07/01 11:50:49;;;;;;;4.55;2.53;;;;;;;;;;5025062;28;20484;-70
2023/07/01 11:53:37;;;;;;;10.43;3.15;;;;;;;;;;5024191;28;20488;-69
2023/07/01 11:56:22;;;;;;;4.95;2.85;;;;;;;;;;5036421;28;20103;-68
2023/07/01 11:59:08;;;;;;;4.35;1.98;;;;;;;;;;5025848;28;20464;-68
2023/07/01 12:01:53;;;;;;;4.85;2.67;;;;;;;;;;5041380;28;20099;-69
2023/07/01 12:04:38;;;;;;;4.43;2.38;;;;;;;;;;5040860;28;20108;-69
2023/07/01 12:07:24;;;;;;;4.03;2.28;;;;;;;;;;5026024;28;20551;-65
2023/07/01 12:10:20;;;;;;;8.73;2.17;;;;;;;;;;5036801;28;20379;-67
2023/07/01 12:13:08;;;;;;;4.32;2.05;;;;;;;;;;5042122;28;20025;-69
2023/07/01 12:15:54;;;;;;;5.85;2.47;;;;;;;;;;5020147;28;20171;-69
2023/07/01 12:18:40;;;;;;;4.53;2.30;;;;;;;;;;5030005;28;20673;-68
2023/07/01 12:21:27;;;;;;;3.65;2.38;;;;;;;;;;5017508;28;20068;-68
2023/07/01 12:24:20;;;;;;;4.95;2.30;;;;;;;;;;5027641;28;20048;-68
2023/07/01 12:27:06;;;;;;;4.43;2.22;;;;;;;;;;5015802;28;20030;-68
2023/07/01 12:29:51;;;;;;;4.13;1.80;;;;;;;;;;5027313;28;20038;-73
2023/07/01 12:32:36;;;;;;;2.33;1.70;;;;;;;;;;5027820;28;20029;-73
2023/07/01 12:35:22;;;;;;;3.60;2.10;;;;;;;;;;5025483;28;20032;-73
2023/07/01 12:38:12;;;;;;;4.50;2.00;;;;;;;;;;5030143;28;20026;-73
2023/07/01 12:40:57;;;;;;;4.10;2.00;;;;;;;;;;5029847;28;20059;-72
2023/07/01 12:43:42;;;;;;;5.00;2.58;;;;;;;;;;5045241;28;20063;-82
2023/07/01 12:46:27;;;;;;;5.75;2.42;;;;;;;;;;5031937;28;20033;-70
2023/07/01 12:49:13;;;;;;;3.05;1.92;;;;;;;;;;5031683;28;20037;-80
2023/07/01 12:51:58;;;;;;;2.72;1.80;;;;;;;;;;5021422;28;20136;-79
2023/07/01 12:54:43;;;;;;;4.47;2.05;;;;;;;;;;5051081;28;20025;-79
2023/07/01 12:57:28;;;;;;;3.95;1.88;;;;;;;;;;5031651;28;20029;-79
2023/07/01 13:00:14;;;;;;;6.75;2.30;;;;;;;;;;5030740;28;20512;-79
2023/07/01 13:02:59;;;;;;;4.78;2.05;;;;;;;;;;5031670;28;20032;-62
2023/07/01 13:05:44;;;;;;;3.70;2.00;;;;;;;;;;5030988;28;20494;-62
2023/07/01 13:08:30;;;;;;;6.07;2.53;;;;;;;;;;5019990;28;20029;-63
2023/07/01 13:11:15;;;;;;;4.50;2.03;;;;;;;;;;5030859;28;20495;-63
2023/07/01 13:14:01;;;;;;;2.75;1.65;;;;;;;;;;5044612;28;20060;-63
2023/07/01 13:16:46;;;;;;;3.78;2.10;;;;;;;;;;5031447;28;20029;-62
2023/07/01 13:19:31;;;;;;;5.05;1.83;;;;;;;;;;5030522;28;20025;-63
2023/07/01 13:22:16;;;;;;;4.72;1.95;;;;;;;;;;5020975;28;20108;-68
2023/07/01 13:25:02;;;;;;;3.42;1.73;;;;;;;;;;5031839;28;20025;-73
2023/07/01 13:27:47;;;;;;;2.58;1.73;;;;;;;;;;5030765;28;20396;-74
2023/07/01 13:30:47;;;;;;;3.40;1.80;;;;;;;;;;5027266;28;20044;-73
2023/07/01 13:33:36;;;;;;;4.90;1.50;;;;;;;;;;5030442;28;20503;-74
2023/07/01 13:36:21;;;;;;;1.90;1.40;;;;;;;;;;5034409;28;20317;-72
2023/07/01 13:39:12;;;;;;;2.47;1.52;;;;;;;;;;5028389;28;20037;-68
2023/07/01 13:42:00;;;;;;;3.38;1.63;;;;;;;;;;5030248;28;20492;-69
2023/07/01 13:44:49;;;;;;;1.97;1.43;;;;;;;;;;5043489;28;20075;-68
2023/07/01 13:47:45;;;;;;;4.53;1.70;;;;;;;;;;5018454;28;20264;-67
2023/07/01 13:50:30;;;;;;;3.40;1.80;;;;;;;;;;5042730;28;20033;-70
2023/07/01 13:53:15;;;;;;;6.85;1.85;;;;;;;;;;5029929;28;20477;-68
2023/07/01 13:56:01;;;;;;;3.00;1.92;;;;;;;;;;5026877;28;20033;-69
2023/07/01 13:58:47;;;;;;;3.22;1.80;;;;;;;;;;5029980;28;20034;-74
2023/07/01 14:01:32;;;;;;;2.72;1.55;;;;;;;;;;5030191;28;20026;-74
2023/07/01 14:04:20;;;;;;;2.42;1.48;;;;;;;;;;5030252;28;20041;-73
2023/07/01 14:07:05;;;;;;;2.65;1.60;;;;;;;;;;5030016;28;20022;-73
2023/07/01 14:09:51;;;;;;;2.22;1.30;;;;;;;;;;5043513;28;20264;-73
2023/07/01 14:12:36;;;;;;;7.03;1.73;;;;;;;;;;5030157;28;20573;-73
2023/07/01 14:15:33;;;;;;;3.40;1.40;;;;;;;;;;5029634;28;20119;-73
2023/07/01 14:18:18;;;;;;;3.17;1.75;;;;;;;;;;5030614;28;20037;-78
2023/07/01 14:21:04;;;;;;;5.25;1.67;;;;;;;;;;5032855;28;20460;-65
2023/07/01 14:23:55;;;;;;;3.28;1.90;;;;;;;;;;5029603;28;20108;-65
2023/07/01 14:26:42;;;;;;;1.88;1.45;;;;;;;;;;5029730;28;20052;-63
2023/07/01 14:29:28;;;;;;;2.83;1.50;;;;;;;;;;5030033;28;20387;-64
2023/07/01 14:32:13;;;;;;;2.50;1.33;;;;;;;;;;5004757;28;20044;-62
2023/07/01 14:34:58;;;;;;;1.98;1.60;;;;;;;;;;5029749;28;20033;-69
2023/07/01 14:37:47;;;;;;;2.13;1.15;;;;;;;;;;5021517;28;20025;-69
2023/07/01 14:40:36;;;;;;;2.75;1.60;;;;;;;;;;5029128;28;20538;-69
2023/07/01 14:43:21;;;;;;;2.35;1.17;;;;;;;;;;5029392;28;20030;-68
2023/07/01 14:46:06;;;;;;;3.58;1.15;;;;;;;;;;5043220;28;20029;-69
2023/07/01 14:48:52;;;;;;;2.17;1.30;;;;;;;;;;5029319;28;20045;-69
2023/07/01 14:51:37;;;;;;;3.30;1.65;;;;;;;;;;5019622;28;20076;-68
2023/07/01 14:54:22;;;;;;;1.73;1.38;;;;;;;;;;5031722;28;20024;-74
2023/07/01 14:57:07;;;;;;;2.58;1.48;;;;;;;;;;5029342;28;20021;-70
2023/07/01 14:59:53;;;;;;;2.78;1.65;;;;;;;;;;5041738;28;20506;-68
2023/07/01 15:02:39;;;;;;;3.33;1.73;;;;;;;;;;5022897;28;20041;-68
2023/07/01 15:05:24;;;;;;;1.90;1.58;;;;;;;;;;5040516;28;20037;-66
2023/07/01 15:08:09;;;;;;;3.47;1.58;;;;;;;;;;5012460;28;20615;-69
2023/07/01 15:10:55;;;;;;;3.45;1.67;;;;;;;;;;5040426;28;20030;-78
2023/07/01 15:13:40;;;;;;;3.65;1.80;;;;;;;;;;5042938;28;20102;-75
2023/07/01 15:16:26;;;;;;;1.73;1.27;;;;;;;;;;5043063;28;20107;-64
2023/07/01 15:19:11;;;;;;;5.00;1.90;;;;;;;;;;5029006;28;20052;-63
2023/07/01 15:21:57;;;;;;;3.05;1.52;;;;;;;;;;5028624;28;20044;-63
2023/07/01 15:24:42;;;;;;;3.55;1.65;;;;;;;;;;5032368;28;20029;-66
2023/07/01 15:27:27;;;;;;;1.75;1.30;;;;;;;;;;5042594;28;20599;-63
2023/07/01 15:30:12;;;;;;;2.97;1.05;;;;;;;;;;5028252;28;20047;-74
2023/07/01 15:32:58;;;;;;;2.85;1.30;;;;;;;;;;5028590;28;20455;-69
2023/07/01 15:35:45;;;;;;;1.23;1.08;;;;;;;;;;5028314;28;20021;-66
2023/07/01 15:38:30;;;;;;;1.23;1.10;;;;;;;;;;5028384;28;20112;-66
2023/07/01 15:41:16;;;;;;;2.03;1.00;;;;;;;;;;5042112;28;20453;-65
2023/07/01 15:44:02;;;;;;;2.55;1.10;;;;;;;;;;5015916;28;20083;-66
2023/07/01 15:46:47;;;;;;;1.98;1.38;;;;;;;;;;5028265;28;20128;-66
2023/07/01 15:49:32;;;;;;;3.28;1.67;;;;;;;;;;5042309;28;20029;-70
2023/07/01 15:52:18;;;;;;;3.42;1.33;;;;;;;;;;5024219;28;20456;-65
2023/07/01 15:55:04;;;;;;;4.53;1.52;;;;;;;;;;5035433;28;20028;-64
2023/07/01 15:57:49;;;;;;;2.83;1.05;;;;;;;;;;5019480;28;20465;-62
2023/07/01 16:00:35;;;;;;;1.50;1.20;;;;;;;;;;5027848;28;20112;-63
2023/07/01 16:03:20;;;;;;;2.22;1.02;;;;;;;;;;5027854;28;20452;-62
2023/07/01 16:06:05;;;;;;;1.55;1.20;;;;;;;;;;5024699;28;20113;-69
2023/07/01 16:08:50;;;;;;;3.95;1.58;;;;;;;;;;5028092;28;20056;-69
2023/07/01 16:11:36;;;;;;;2.55;1.15;;;;;;;;;;5028161;28;20029;-62
2023/07/01 16:14:21;;;;;;;2.05;1.33;;;;;;;;;;5026684;28;20515;-62
2023/07/01 16:17:06;;;;;;;5.38;3.03;;;;;;;;;;5042185;28;20052;-63
2023/07/01 16:19:52;;;;;;;1.95;1.38;;;;;;;;;;5025831;28;20044;-64
2023/07/01 16:22:37;;;;;;;1.48;1.25;;;;;;;;;;5027724;28;20088;-63
2023/07/01 16:25:23;;;;;;;2.95;1.10;;;;;;;;;;5027775;28;20140;-75
2023/07/01 16:28:09;;;;;;;1.80;1.45;;;;;;;;;;5027676;28;20029;-69
2023/07/01 16:30:54;;;;;;;3.78;1.20;;;;;;;;;;5014092;28;20022;-68
2023/07/01 16:33:39;;;;;;;2.22;1.15;;;;;;;;;;5027916;28;20507;-69
2023/07/01 16:36:26;;;;;;;1.30;1.20;;;;;;;;;;5041069;28;20444;-69
2023/07/01 16:39:12;;;;;;;1.40;1.15;;;;;;;;;;5041477;28;20068;-69